Time;durP1;ratioP1;P1;durP2;ratioP2;P2;SDS_P1;SDS_P2;PMS_P1;PMS_P2;Temp;Humidity;BMP_temperature;BMP_pressure;BME280_temperature;BME280_humidity;BME280_pressure;Samples;Min_cycle;Max_cycle;Signal;HPM_P1;HPM_P2
2021/12/10 00:01:54;;;;;;;49.57;29.87;;;;;;;4.65;96.94;94006.38;5018318;28;20429;-83
2021/12/10 00:04:29;;;;;;;43.93;26.70;;;;;;;4.61;97.20;94023.09;5053115;28;20437;-83
2021/12/10 00:06:58;;;;;;;40.27;24.23;;;;;;;4.65;98.01;94011.56;5053109;28;20448;-83
2021/12/10 00:09:29;;;;;;;39.40;27.53;;;;;;;4.68;98.45;94002.72;5053055;28;20480;-83
2021/12/10 00:12:00;;;;;;;35.30;23.97;;;;;;;4.71;98.08;94011.09;5053374;28;20433;-83
2021/12/10 00:14:31;;;;;;;37.03;26.90;;;;;;;4.71;99.00;94005.06;5053475;28;20492;-84
2021/12/10 00:17:00;;;;;;;37.60;26.40;;;;;;;4.66;99.19;94005.44;5053178;28;20469;-83
2021/12/10 00:19:33;;;;;;;47.70;27.90;;;;;;;4.25;100.00;94006.75;5053105;28;20414;-83
2021/12/10 00:22:05;;;;;;;40.87;27.63;;;;;;;4.37;100.00;94006.78;5053269;28;20440;-84
2021/12/10 00:24:33;;;;;;;45.60;30.23;;;;;;;4.44;100.00;94011.41;5053323;28;20465;-83
2021/12/10 00:27:04;;;;;;;47.20;27.07;;;;;;;4.50;100.00;94002.31;5053116;28;20432;-83
2021/12/10 00:29:34;;;;;;;45.23;26.30;;;;;;;4.50;100.00;93984.97;5052821;28;20457;-83
2021/12/10 00:32:07;;;;;;;39.30;24.53;;;;;;;4.54;100.00;93982.97;5053086;28;20445;-83
2021/12/10 00:34:43;;;;;;;37.40;24.07;;;;;;;4.59;99.99;93968.66;5052851;28;20483;-83
2021/12/10 00:37:14;;;;;;;35.10;20.20;;;;;;;4.64;99.98;93976.97;5053131;28;20440;-83
2021/12/10 00:39:44;;;;;;;30.10;20.80;;;;;;;4.68;100.00;93987.94;5052694;28;20920;-83
2021/12/10 00:42:15;;;;;;;42.37;25.40;;;;;;;4.74;100.00;94000.47;5052470;28;20452;-84
2021/12/10 00:44:44;;;;;;;42.23;27.07;;;;;;;4.80;100.00;93987.00;5053370;28;20444;-84
2021/12/10 00:47:11;;;;;;;32.67;23.23;;;;;;;4.85;100.00;93989.22;5053425;28;20456;-83
2021/12/10 00:49:39;;;;;;;34.50;21.03;;;;;;;4.91;100.00;93973.16;5053288;28;20484;-84
2021/12/10 00:52:08;;;;;;;27.67;18.60;;;;;;;4.95;100.00;93970.22;5053067;28;20448;-83
2021/12/10 00:54:35;;;;;;;28.83;19.20;;;;;;;5.01;100.00;93968.91;5055033;28;20453;-84
2021/12/10 00:57:03;;;;;;;31.07;18.53;;;;;;;5.05;100.00;93964.31;5021612;28;20433;-83
2021/12/10 01:06:17;;;;;;;23.27;16.77;;;;;;;5.14;100.00;93947.97;5055364;28;20512;-84
2021/12/10 01:08:47;;;;;;;25.80;15.50;;;;;;;5.14;100.00;93953.19;5056271;28;20445;-84
2021/12/10 01:11:17;;;;;;;22.47;14.97;;;;;;;5.15;99.87;93970.44;5056262;28;20425;-83
2021/12/10 01:13:48;;;;;;;22.20;15.70;;;;;;;5.20;100.00;93968.28;5056372;28;20448;-84
2021/12/10 01:24:50;;;;;;;22.00;15.07;;;;;;;5.11;99.88;93963.81;5056061;28;20420;-84
2021/12/10 01:27:28;;;;;;;26.77;14.40;;;;;;;5.13;100.00;93967.94;5056308;28;20466;-83
2021/12/10 01:29:58;;;;;;;18.30;14.07;;;;;;;5.16;100.00;93952.09;5055959;28;20578;-83
2021/12/10 01:32:29;;;;;;;17.90;13.90;;;;;;;5.21;100.00;93938.75;5056135;28;20441;-83
2021/12/10 01:34:56;;;;;;;21.07;14.70;;;;;;;5.20;100.00;93940.53;5055931;28;20433;-83
2021/12/10 01:37:25;;;;;;;18.63;13.73;;;;;;;5.17;100.00;93943.34;5056146;28;20449;-83
2021/12/10 01:43:22;;;;;;;20.73;14.70;;;;;;;5.28;100.00;93913.91;5055063;28;20479;-83
2021/12/10 01:45:52;;;;;;;21.50;14.50;;;;;;;5.29;100.00;93918.16;5056104;28;20834;-83
2021/12/10 01:48:22;;;;;;;28.83;15.80;;;;;;;5.30;100.00;93922.41;5056025;28;20448;-83
2021/12/10 01:50:50;;;;;;;25.53;14.10;;;;;;;5.30;100.00;93922.41;5055574;28;20465;-83
2021/12/10 01:53:23;;;;;;;21.90;13.23;;;;;;;5.30;100.00;93927.63;5056114;28;20443;-83
2021/12/10 01:55:53;;;;;;;25.47;15.07;;;;;;;5.29;100.00;93920.78;5055398;28;20951;-83
2021/12/10 01:58:23;;;;;;;16.40;13.60;;;;;;;5.29;100.00;93924.19;5055463;28;20444;-83
2021/12/10 02:00:53;;;;;;;19.30;14.43;;;;;;;5.22;100.00;93904.00;5055535;28;20434;-83
2021/12/10 02:03:21;;;;;;;21.13;14.80;;;;;;;5.20;100.00;93905.88;5055566;28;20449;-83
2021/12/10 02:05:48;;;;;;;17.77;14.03;;;;;;;5.22;100.00;93906.59;5054209;28;20441;-83
2021/12/10 02:08:15;;;;;;;18.07;13.43;;;;;;;5.26;100.00;93903.63;5055521;28;20460;-83
2021/12/10 02:10:47;;;;;;;19.07;14.90;;;;;;;5.23;100.00;93898.69;5054970;28;20572;-83
2021/12/10 02:13:14;;;;;;;23.70;15.47;;;;;;;5.20;100.00;93885.06;5055410;28;20963;-83
2021/12/10 02:15:41;;;;;;;24.83;13.80;;;;;;;5.24;100.00;93902.09;5055389;28;20422;-83
2021/12/10 02:18:10;;;;;;;20.93;15.67;;;;;;;5.24;100.00;93897.72;5055244;28;20448;-82
2021/12/10 02:20:52;;;;;;;24.43;15.43;;;;;;;5.29;100.00;93882.59;5054996;28;20426;-84
2021/12/10 02:23:59;;;;;;;23.60;14.70;;;;;;;5.29;100.00;93881.75;5055275;28;20436;-83
2021/12/10 02:26:29;;;;;;;24.87;18.03;;;;;;;5.19;100.00;93883.41;5055227;28;20457;-83
2021/12/10 02:28:56;;;;;;;25.27;18.80;;;;;;;5.20;100.00;93885.06;5055065;28;20460;-83
2021/12/10 02:31:24;;;;;;;33.23;20.50;;;;;;;5.24;100.00;93876.09;5054901;28;20437;-83
2021/12/10 02:33:51;;;;;;;25.93;18.00;;;;;;;5.23;100.00;93877.06;5054746;28;20449;-83
2021/12/10 02:36:19;;;;;;;30.80;19.93;;;;;;;5.21;100.00;93876.34;5054756;28;20855;-83
2021/12/10 02:38:48;;;;;;;25.63;18.63;;;;;;;5.21;100.00;93866.78;5054878;28;20471;-83
2021/12/10 02:41:18;;;;;;;28.00;17.80;;;;;;;5.27;100.00;93891.47;5054527;28;20781;-83
2021/12/10 02:43:46;;;;;;;24.73;16.37;;;;;;;5.26;100.00;93902.81;5053727;28;20480;-83
2021/12/10 02:46:13;;;;;;;20.07;15.50;;;;;;;5.28;100.00;93903.50;5054809;28;20459;-83
2021/12/10 02:48:41;;;;;;;25.97;15.40;;;;;;;5.28;100.00;93900.91;5054453;28;20529;-83
2021/12/10 02:51:09;;;;;;;24.50;14.80;;;;;;;5.34;100.00;93903.00;5054678;28;20480;-84
2021/12/10 02:53:42;;;;;;;24.30;14.40;;;;;;;5.36;100.00;93895.91;5054451;28;20959;-83
2021/12/10 02:56:10;;;;;;;25.07;15.23;;;;;;;5.38;100.00;93887.97;5054641;28;20789;-83
2021/12/10 02:58:37;;;;;;;25.50;15.47;;;;;;;5.39;100.00;93889.63;5053826;28;20449;-83
2021/12/10 03:01:08;;;;;;;22.77;14.23;;;;;;;5.35;100.00;93904.66;5053645;28;20456;-83
2021/12/10 03:03:36;;;;;;;25.33;15.37;;;;;;;5.38;100.00;93912.22;5053540;28;20928;-83
2021/12/10 03:06:10;;;;;;;22.57;15.40;;;;;;;5.39;100.00;93902.63;5053299;28;20528;-83
2021/12/10 03:08:39;;;;;;;21.77;13.30;;;;;;;5.41;100.00;93911.97;5053513;28;20456;-83
2021/12/10 03:11:06;;;;;;;27.57;15.60;;;;;;;5.43;100.00;93912.66;5054308;28;20488;-83
2021/12/10 03:13:34;;;;;;;24.47;15.37;;;;;;;5.50;100.00;93905.22;5054119;28;20441;-83
2021/12/10 03:16:01;;;;;;;22.43;14.60;;;;;;;5.55;100.00;93893.50;5054227;28;20452;-83
2021/12/10 03:18:29;;;;;;;18.77;13.57;;;;;;;5.54;100.00;93878.81;5053622;28;20445;-83
2021/12/10 03:20:56;;;;;;;22.13;14.87;;;;;;;5.57;100.00;93890.75;5054020;28;20934;-83
2021/12/10 03:23:22;;;;;;;21.43;14.00;;;;;;;5.60;100.00;93888.72;5053704;28;20441;-83
2021/12/10 03:25:51;;;;;;;22.90;15.67;;;;;;;5.58;100.00;93901.03;5054125;28;20460;-83
2021/12/10 03:28:18;;;;;;;23.47;17.17;;;;;;;5.55;100.00;93896.09;5054042;28;20438;-83
2021/12/10 03:30:49;;;;;;;25.30;17.60;;;;;;;5.51;100.00;93899.91;5053624;28;20509;-84
2021/12/10 03:33:17;;;;;;;30.17;19.37;;;;;;;5.45;100.00;93902.97;5053579;28;20917;-83
2021/12/10 03:35:49;;;;;;;30.33;19.40;;;;;;;5.45;100.00;93907.34;5053826;28;20450;-84
2021/12/10 03:38:19;;;;;;;22.90;14.97;;;;;;;5.40;100.00;93905.13;5053746;28;20440;-83
2021/12/10 03:44:10;;;;;;;17.40;12.50;;;;;;;5.45;100.00;93881.31;5040182;28;20464;-83
2021/12/10 03:46:37;;;;;;;15.87;12.10;;;;;;;5.40;100.00;93888.69;5053650;28;20454;-83
2021/12/10 03:49:06;;;;;;;16.23;11.37;;;;;;;5.38;100.00;93901.00;5053487;28;20455;-83
2021/12/10 03:51:34;;;;;;;16.93;11.33;;;;;;;5.42;100.00;93899.78;5034787;28;20481;-84
2021/12/10 03:54:02;;;;;;;21.37;12.23;;;;;;;5.46;100.00;93911.59;5053681;28;20449;-83
2021/12/10 03:56:32;;;;;;;18.13;12.00;;;;;;;5.49;100.00;93904.41;5053649;28;20442;-83
2021/12/10 03:59:02;;;;;;;18.90;12.37;;;;;;;5.55;100.00;93913.47;5053145;28;20464;-84
2021/12/10 04:01:32;;;;;;;18.47;12.20;;;;;;;5.56;100.00;93907.31;5053569;28;20438;-83
2021/12/10 04:04:05;;;;;;;14.30;10.97;;;;;;;5.55;100.00;93901.28;5053485;28;20426;-84
2021/12/10 04:06:32;;;;;;;15.23;11.20;;;;;;;5.54;100.00;93911.81;5052948;28;20512;-84
2021/12/10 04:12:22;;;;;;;16.30;11.23;;;;;;;5.49;100.00;93906.16;5051975;28;20482;-84
2021/12/10 04:14:51;;;;;;;14.23;10.50;;;;;;;5.55;100.00;93900.47;5053528;28;20425;-84
2021/12/10 04:17:21;;;;;;;14.23;9.93;;;;;;;5.59;100.00;93907.06;5053090;28;20778;-83
2021/12/10 04:19:51;;;;;;;16.13;12.10;;;;;;;5.67;100.00;93909.88;5053549;28;20447;-83
2021/12/10 04:22:20;;;;;;;16.53;11.43;;;;;;;5.71;100.00;93913.88;5053243;28;20796;-84
2021/12/10 04:24:48;;;;;;;13.23;10.50;;;;;;;5.80;100.00;93917.53;5052958;28;20426;-84
2021/12/10 04:27:17;;;;;;;14.70;11.43;;;;;;;5.84;100.00;93911.94;5053030;28;20447;-83
2021/12/10 04:29:44;;;;;;;12.60;11.03;;;;;;;5.85;100.00;93902.34;5055709;28;20862;-83
2021/12/10 04:32:13;;;;;;;20.03;13.60;;;;;;;5.89;100.00;93914.16;5056851;28;20456;-84
2021/12/10 04:34:41;;;;;;;24.43;12.73;;;;;;;5.88;100.00;93909.91;5057046;28;20920;-84
2021/12/10 04:37:11;;;;;;;22.17;13.87;;;;;;;5.89;100.00;93916.75;5057144;28;20798;-84
2021/12/10 04:39:45;;;;;;;17.97;13.60;;;;;;;5.92;100.00;93923.50;5057208;28;20451;-84
2021/12/10 04:42:12;;;;;;;27.67;15.60;;;;;;;5.90;100.00;93931.47;5056908;28;20445;-83
2021/12/10 04:44:39;;;;;;;18.03;12.87;;;;;;;5.87;100.00;93929.06;5057136;28;20473;-84
2021/12/10 04:47:06;;;;;;;17.63;12.03;;;;;;;5.88;100.00;93925.53;5057291;28;20457;-84
2021/12/10 04:49:33;;;;;;;17.70;12.43;;;;;;;5.87;100.00;93918.66;5021925;28;20440;-84
2021/12/10 04:52:07;;;;;;;31.10;17.77;;;;;;;5.90;100.00;93931.47;5054953;28;20449;-84
2021/12/10 04:54:35;;;;;;;23.43;17.53;;;;;;;5.88;100.00;93933.31;5056693;28;20921;-84
2021/12/10 04:57:02;;;;;;;32.47;21.80;;;;;;;5.81;100.00;93932.19;5056671;28;20477;-83
2021/12/10 04:59:32;;;;;;;28.57;22.10;;;;;;;5.74;100.00;93931.84;5056535;28;20441;-84
2021/12/10 05:02:01;;;;;;;33.97;22.10;;;;;;;5.72;100.00;93925.09;5056865;28;20441;-79
2021/12/10 05:04:30;;;;;;;40.70;24.90;;;;;;;5.60;100.00;93919.97;5056675;28;20506;-83
2021/12/10 05:06:58;;;;;;;40.97;26.80;;;;;;;5.82;100.00;93915.63;5057426;28;20453;-83
2021/12/10 05:09:28;;;;;;;39.63;29.60;;;;;;;5.81;100.00;93940.00;5056312;28;20445;-83
2021/12/10 05:11:56;;;;;;;42.17;30.57;;;;;;;5.44;100.00;93939.50;5056272;28;20484;-83
2021/12/10 05:14:25;;;;;;;62.47;40.78;;;;;;;5.28;100.00;93940.75;5056206;28;20881;-83
2021/12/10 05:16:54;;;;;;;47.33;32.90;;;;;;;5.11;100.00;93940.41;5056194;28;20207;-84
2021/12/10 05:19:26;;;;;;;49.77;33.07;;;;;;;5.20;100.00;93942.28;5056561;28;20437;-82
2021/12/10 05:21:54;;;;;;;60.43;36.57;;;;;;;5.15;100.00;93944.44;5054472;28;20452;-82
2021/12/10 05:24:21;;;;;;;63.67;34.27;;;;;;;5.03;100.00;93935.00;5056367;28;20441;-82
2021/12/10 05:26:50;;;;;;;64.40;37.13;;;;;;;4.90;100.00;93945.50;5056581;28;20520;-87
2021/12/10 05:29:17;;;;;;;52.87;33.97;;;;;;;4.89;100.00;93942.09;5056590;28;20456;-81
2021/12/10 05:31:45;;;;;;;58.83;38.70;;;;;;;4.78;100.00;93941.28;5056386;28;20564;-82
2021/12/10 05:37:34;;;;;;;52.07;36.97;;;;;;;4.92;100.00;93959.25;5054787;28;20440;-82
2021/12/10 05:40:04;;;;;;;57.03;35.60;;;;;;;4.83;100.00;93965.97;5055527;28;20452;-81
2021/12/10 05:42:33;;;;;;;56.97;33.03;;;;;;;4.42;100.00;93953.56;5055554;28;20446;-81
2021/12/10 05:45:00;;;;;;;58.27;36.40;;;;;;;4.22;100.00;93952.44;5055973;28;20480;-80
2021/12/10 05:47:27;;;;;;;66.70;38.27;;;;;;;4.13;100.00;93965.31;5056584;28;20457;-82
2021/12/10 05:49:54;;;;;;;52.23;32.57;;;;;;;4.29;100.00;93958.84;5055872;28;20453;-82
2021/12/10 05:52:21;;;;;;;53.70;31.57;;;;;;;4.34;100.00;93955.91;5069567;28;20433;-82
2021/12/10 05:54:50;;;;;;;59.10;35.80;;;;;;;4.31;100.00;93938.78;5075073;28;20449;-80
2021/12/10 05:57:17;;;;;;;52.60;33.90;;;;;;;4.39;100.00;93945.19;5074862;28;20949;-84
2021/12/10 05:59:46;;;;;;;53.50;33.90;;;;;;;4.48;100.00;93944.47;5074565;28;20488;-81
2021/12/10 06:02:13;;;;;;;50.90;32.30;;;;;;;4.58;100.00;93948.00;5075946;28;20413;-80
2021/12/10 06:04:42;;;;;;;61.90;38.70;;;;;;;4.71;100.00;93955.69;5075489;28;20451;-81
2021/12/10 06:07:09;;;;;;;76.60;43.77;;;;;;;4.64;100.00;93948.38;5040974;28;20455;-79
2021/12/10 06:09:36;;;;;;;66.93;37.80;;;;;;;4.51;100.00;93939.03;5075336;28;20424;-80
2021/12/10 06:12:04;;;;;;;55.37;35.33;;;;;;;4.71;100.00;93933.13;5075286;28;20467;-79
2021/12/10 06:14:31;;;;;;;47.50;32.40;;;;;;;4.82;100.00;93948.72;5075519;28;20455;-81
2021/12/10 06:17:00;;;;;;;57.87;32.30;;;;;;;4.92;100.00;93939.28;5075419;28;20429;-78
2021/12/10 06:19:27;;;;;;;54.97;35.07;;;;;;;5.00;100.00;93930.03;5075153;28;20435;-78
2021/12/10 06:21:54;;;;;;;44.47;30.67;;;;;;;4.80;100.00;93924.63;5075050;28;20449;-82
2021/12/10 06:24:21;;;;;;;42.57;27.27;;;;;;;4.64;100.00;93945.78;5074986;28;20441;-81
2021/12/10 06:26:51;;;;;;;41.77;27.27;;;;;;;4.79;100.00;93928.16;5075247;28;20443;-80
2021/12/10 06:29:18;;;;;;;39.77;25.43;;;;;;;4.92;100.00;93922.84;5075262;28;20455;-80
2021/12/10 06:31:45;;;;;;;38.30;28.20;;;;;;;4.97;100.00;93918.94;5035198;28;20496;-81
2021/12/10 06:34:14;;;;;;;46.93;28.40;;;;;;;5.05;100.00;93912.31;5054979;28;20448;-81
2021/12/10 06:36:41;;;;;;;41.47;30.57;;;;;;;5.17;100.00;93922.56;5054604;28;20460;-82
2021/12/10 06:39:09;;;;;;;46.40;29.83;;;;;;;5.25;100.00;93915.00;5054868;28;20437;-80
2021/12/10 06:41:36;;;;;;;45.37;28.50;;;;;;;5.30;100.00;93914.63;5054626;28;20441;-82
2021/12/10 06:44:04;;;;;;;50.90;32.43;;;;;;;5.37;100.00;93902.75;5055082;28;20475;-82
2021/12/10 06:46:32;;;;;;;65.17;36.23;;;;;;;5.36;100.00;93884.69;5054836;28;20460;-81
2021/12/10 06:48:59;;;;;;;86.30;47.90;;;;;;;5.40;100.00;93886.91;5054747;28;20421;-80
2021/12/10 06:51:28;;;;;;;111.77;59.50;;;;;;;5.45;100.00;93897.75;5053839;28;20461;-81
2021/12/10 06:53:55;;;;;;;122.77;75.57;;;;;;;5.50;100.00;93902.63;5054247;28;20453;-81
2021/12/10 06:56:23;;;;;;;82.27;54.43;;;;;;;5.47;100.00;93897.63;5055895;28;20425;-79
2021/12/10 06:58:50;;;;;;;83.90;52.13;;;;;;;5.51;100.00;93906.88;5054294;28;20503;-79
2021/12/10 07:01:23;;;;;;;69.00;42.57;;;;;;;5.53;100.00;93908.41;5054267;28;20942;-80
2021/12/10 07:20:48;;;;;;;68.93;43.00;;;;;;;5.54;100.00;93911.81;5053928;28;20428;-80
2021/12/10 07:23:16;;;;;;;66.23;41.37;;;;;;;5.60;100.00;93922.56;5053874;28;20475;-80
2021/12/10 07:25:43;;;;;;;66.67;47.93;;;;;;;5.68;100.00;93914.13;5054229;28;20750;-80
2021/12/10 07:28:10;;;;;;;82.70;55.67;;;;;;;5.68;100.00;93923.72;5054274;28;20422;-79
2021/12/10 07:30:38;;;;;;;74.70;50.57;;;;;;;5.80;100.00;93927.94;5053860;28;20484;-80
2021/12/10 07:33:05;;;;;;;70.63;46.77;;;;;;;5.80;100.00;93940.94;5036280;28;20519;-80
2021/12/10 07:35:32;;;;;;;63.50;40.50;;;;;;;5.71;100.00;93931.25;5073639;28;20471;-81
2021/12/10 07:38:01;;;;;;;58.90;40.43;;;;;;;5.66;100.00;93933.41;5073659;28;20915;-80
2021/12/10 07:40:31;;;;;;;61.97;41.07;;;;;;;5.79;100.00;93924.50;5038536;28;20445;-82
2021/12/10 07:42:59;;;;;;;69.00;42.10;;;;;;;5.90;100.00;93923.66;5074346;28;20778;-81
2021/12/10 07:45:28;;;;;;;118.13;74.27;;;;;;;5.93;100.00;93926.00;5073597;28;20498;-81
2021/12/10 07:47:56;;;;;;;105.83;69.13;;;;;;;5.87;100.00;93916.06;5069937;28;20456;-81
2021/12/10 07:50:26;;;;;;;80.20;50.97;;;;;;;5.93;100.00;93912.97;5053654;28;20444;-81
2021/12/10 07:52:55;;;;;;;82.90;49.00;;;;;;;6.00;100.00;93911.50;5053608;28;20442;-80
2021/12/10 07:55:29;;;;;;;76.63;50.80;;;;;;;6.14;100.00;93908.59;5069289;28;20452;-80
2021/12/10 07:57:57;;;;;;;72.30;47.80;;;;;;;6.28;100.00;93901.41;5063997;28;20451;-81
2021/12/10 08:00:26;;;;;;;89.35;55.35;;;;;;;6.35;100.00;93905.97;5070172;28;20464;-80
2021/12/10 08:02:53;;;;;;;80.43;50.20;;;;;;;6.46;100.00;93918.94;5072969;28;20194;-81
2021/12/10 08:05:22;;;;;;;83.23;52.43;;;;;;;6.57;100.00;93925.00;5072945;28;20949;-82
2021/12/10 08:07:50;;;;;;;73.90;49.70;;;;;;;6.60;100.00;93896.06;5069412;28;20454;-80
2021/12/10 08:10:17;;;;;;;88.70;51.77;;;;;;;6.65;100.00;93907.78;5061985;28;20531;-81
2021/12/10 08:12:46;;;;;;;79.13;50.13;;;;;;;6.72;100.00;93913.28;5063679;28;20489;-81
2021/12/10 08:15:13;;;;;;;63.07;44.57;;;;;;;6.77;100.00;93898.06;5053003;28;20452;-81
2021/12/10 08:17:42;;;;;;;79.07;49.93;;;;;;;6.83;100.00;93908.78;5053141;28;20438;-81
2021/12/10 08:20:12;;;;;;;77.97;49.33;;;;;;;6.86;100.00;93918.13;5052893;28;20480;-81
2021/12/10 08:22:39;;;;;;;76.87;49.47;;;;;;;6.93;100.00;93924.47;5052940;28;20449;-82
2021/12/10 08:25:06;;;;;;;77.47;50.10;;;;;;;6.94;100.00;93915.72;5051251;28;20445;-81
2021/12/10 08:27:36;;;;;;;117.87;72.73;;;;;;;6.79;100.00;93901.38;5034569;28;20452;-81
2021/12/10 08:30:06;;;;;;;103.97;62.90;;;;;;;6.88;100.00;93903.19;5067052;28;20445;-82
2021/12/10 08:32:33;;;;;;;84.13;52.17;;;;;;;6.84;100.00;93892.19;5065589;28;20492;-81
2021/12/10 08:35:01;;;;;;;76.27;53.83;;;;;;;6.82;100.00;93903.72;5026259;28;20481;-81
2021/12/10 08:37:28;;;;;;;102.47;64.07;;;;;;;6.87;100.00;93917.19;5068358;28;20572;-81
2021/12/10 08:39:55;;;;;;;116.20;69.77;;;;;;;6.93;100.00;93921.84;5055822;28;20445;-81
2021/12/10 08:42:22;;;;;;;100.47;59.47;;;;;;;6.94;100.00;93915.72;5052704;28;20441;-81
2021/12/10 08:44:50;;;;;;;99.37;62.30;;;;;;;6.98;100.00;93930.13;5053186;28;20816;-81
2021/12/10 08:47:19;;;;;;;101.20;57.40;;;;;;;6.98;100.00;93914.50;5062311;28;20570;-81
2021/12/10 08:49:46;;;;;;;86.33;53.47;;;;;;;6.96;100.00;93905.16;5072994;28;20436;-82
2021/12/10 08:52:16;;;;;;;69.67;46.70;;;;;;;6.68;100.00;93902.31;5073109;28;20561;-81
2021/12/10 08:54:44;;;;;;;79.27;52.27;;;;;;;6.56;100.00;93899.91;5058610;28;20940;-81
2021/12/10 08:57:11;;;;;;;104.03;65.80;;;;;;;6.53;100.00;93906.19;5052991;28;20453;-81
2021/12/10 08:59:39;;;;;;;96.43;61.57;;;;;;;6.64;100.00;93906.09;5028434;28;20453;-82
2021/12/10 09:02:14;;;;;;;92.23;57.40;;;;;;;6.69;100.00;93908.34;5072564;28;20445;-81
2021/12/10 09:04:42;;;;;;;88.60;54.97;;;;;;;6.73;100.00;93899.28;5055011;28;20946;-81
2021/12/10 09:07:13;;;;;;;81.43;54.07;;;;;;;6.81;100.00;93902.06;5072885;28;20432;-81
2021/12/10 09:09:44;;;;;;;82.73;53.67;;;;;;;6.87;100.00;93898.09;5058604;28;20437;-82
2021/12/10 09:12:25;;;;;;;112.23;70.87;;;;;;;6.95;100.00;93903.50;5052350;28;20960;-81
2021/12/10 09:14:54;;;;;;;138.20;83.07;;;;;;;6.99;100.00;93910.09;5054017;28;20460;-81
2021/12/10 09:17:24;;;;;;;117.10;77.33;;;;;;;7.03;100.00;93880.19;5076511;28;20445;-82
2021/12/10 09:19:55;;;;;;;135.50;80.87;;;;;;;6.98;100.00;93875.38;5057660;28;20707;-81
2021/12/10 09:22:23;;;;;;;130.93;82.30;;;;;;;7.01;100.00;93874.28;5076449;28;20443;-81
2021/12/10 09:24:51;;;;;;;142.20;87.10;;;;;;;7.05;100.00;93879.09;5073313;28;20519;-82
2021/12/10 09:27:19;;;;;;;129.40;82.37;;;;;;;7.04;100.00;93880.03;5056036;28;20949;-81
2021/12/10 09:29:48;;;;;;;185.87;107.50;;;;;;;7.02;100.00;93899.41;5056073;28;20553;-81
2021/12/10 09:32:20;;;;;;;216.17;113.13;;;;;;;6.98;100.00;93883.19;5062257;28;20469;-81
2021/12/10 09:34:48;;;;;;;161.83;100.73;;;;;;;7.04;100.00;93882.66;5041717;28;20436;-81
2021/12/10 09:37:18;;;;;;;177.70;104.40;;;;;;;7.10;100.00;93886.50;5076185;28;20449;-81
2021/12/10 09:39:48;;;;;;;220.17;118.43;;;;;;;7.09;100.00;93858.78;5075908;28;20468;-81
2021/12/10 09:42:16;;;;;;;227.70;125.57;;;;;;;7.15;100.00;93856.44;5076171;28;20791;-81
2021/12/10 09:44:43;;;;;;;168.73;97.47;;;;;;;7.26;100.00;93860.72;5076096;28;20484;-81
2021/12/10 09:47:14;;;;;;;119.80;74.67;;;;;;;7.27;100.00;93859.78;5076026;28;20988;-81
2021/12/10 09:49:42;;;;;;;120.33;76.90;;;;;;;7.28;100.00;93861.41;5075739;28;20466;-81
2021/12/10 09:52:09;;;;;;;119.43;74.30;;;;;;;7.39;100.00;93866.50;5071258;28;20491;-81
2021/12/10 09:54:38;;;;;;;108.93;69.90;;;;;;;7.42;100.00;93858.41;5040537;28;20457;-81
2021/12/10 09:57:09;;;;;;;111.53;66.80;;;;;;;7.44;100.00;93859.09;5074166;28;20446;-81
2021/12/10 09:59:37;;;;;;;102.77;64.87;;;;;;;7.53;100.00;93873.13;5074552;28;20503;-81
2021/12/10 10:02:06;;;;;;;106.60;68.50;;;;;;;7.61;100.00;93862.81;5061798;28;20451;-82
2021/12/10 10:04:35;;;;;;;116.13;68.10;;;;;;;7.68;100.00;93850.03;5057222;28;20450;-81
2021/12/10 10:07:08;;;;;;;101.27;63.93;;;;;;;7.78;100.00;93851.66;5057088;28;20446;-82
2021/12/10 10:09:37;;;;;;;113.17;70.10;;;;;;;7.86;100.00;93837.91;5067226;28;20456;-82
2021/12/10 10:12:08;;;;;;;108.63;66.23;;;;;;;7.86;100.00;93835.31;5074465;28;20475;-82
2021/12/10 10:14:37;;;;;;;126.20;78.80;;;;;;;7.83;100.00;93838.19;5075495;28;20802;-81
2021/12/10 10:17:04;;;;;;;157.37;87.27;;;;;;;7.84;100.00;93841.63;5040015;28;20503;-80
2021/12/10 10:19:32;;;;;;;142.07;83.30;;;;;;;7.80;100.00;93837.63;5076232;28;20958;-80
2021/12/10 10:22:01;;;;;;;111.97;66.63;;;;;;;7.73;100.00;93835.59;5076276;28;20434;-80
2021/12/10 10:24:30;;;;;;;66.97;43.03;;;;;;;7.49;100.00;93821.31;5063161;28;20457;-80
2021/12/10 10:27:03;;;;;;;71.30;46.27;;;;;;;7.51;100.00;93816.75;5054373;28;20440;-79
2021/12/10 10:29:35;;;;;;;73.90;46.40;;;;;;;7.66;100.00;93820.63;5055048;28;20450;-81
2021/12/10 10:32:09;;;;;;;75.70;45.80;;;;;;;7.75;100.00;93817.16;5055682;28;20554;-81
2021/12/10 10:34:38;;;;;;;77.30;46.20;;;;;;;7.77;100.00;93813.44;5054811;28;20461;-81
2021/12/10 10:37:05;;;;;;;76.87;50.63;;;;;;;7.83;100.00;93814.69;5055053;28;20435;-80
2021/12/10 10:39:34;;;;;;;73.03;49.27;;;;;;;7.81;100.00;93814.03;5064610;28;20808;-80
2021/12/10 10:42:06;;;;;;;59.50;42.07;;;;;;;7.83;100.00;93806.88;5069400;28;20465;-80
2021/12/10 10:44:33;;;;;;;62.60;42.00;;;;;;;7.90;100.00;93812.34;5063952;28;20496;-80
2021/12/10 10:47:20;;;;;;;;;;;;;;;;;;;;;
2021/12/10 10:49:49;;;;;;;57.40;39.83;;;;;;;8.03;100.00;93802.41;5074728;28;20449;-79
2021/12/10 10:52:28;;;;;;;65.47;42.37;;;;;;;8.15;100.00;93813.53;5074323;28;21230;-80
2021/12/10 10:54:59;;;;;;;52.80;40.43;;;;;;;8.23;100.00;93797.94;5074417;28;20464;-79
2021/12/10 10:57:30;;;;;;;45.67;31.40;;;;;;;8.27;100.00;93804.53;5074333;28;20521;-80
2021/12/10 11:00:11;;;;;;;46.83;31.03;;;;;;;8.30;99.77;93804.25;5073626;28;20936;-81
2021/12/10 11:02:48;;;;;;;45.73;32.13;;;;;;;8.36;99.54;93806.31;5074263;28;20430;-77
2021/12/10 11:05:16;;;;;;;44.97;32.20;;;;;;;8.43;100.00;93791.72;5074153;28;20451;-81
2021/12/10 11:07:49;;;;;;;46.90;34.60;;;;;;;8.47;99.49;93797.50;5074077;28;20432;-81
2021/12/10 11:10:27;;;;;;;51.47;35.10;;;;;;;8.51;99.72;93801.47;5072904;28;20871;-80
2021/12/10 11:13:09;;;;;;;51.93;35.40;;;;;;;8.52;99.12;93803.91;5054104;28;20489;-80
2021/12/10 11:15:37;;;;;;;51.20;35.67;;;;;;;8.49;99.36;93809.44;5053968;28;20940;-81
2021/12/10 11:18:04;;;;;;;49.47;33.93;;;;;;;8.48;98.53;93807.78;5053943;28;20445;-80
2021/12/10 11:20:33;;;;;;;48.43;36.20;;;;;;;8.38;99.34;93810.47;5054295;28;20801;-80
2021/12/10 11:26:22;;;;;;;64.13;43.47;;;;;;;8.06;100.00;93791.66;5053020;28;20463;-80
2021/12/10 11:28:50;;;;;;;61.37;41.97;;;;;;;7.98;100.00;93784.53;5035407;28;20954;-80
2021/12/10 11:31:18;;;;;;;61.13;39.73;;;;;;;8.00;100.00;93764.31;5018857;28;20443;-81
2021/12/10 11:33:49;;;;;;;58.00;40.30;;;;;;;8.06;100.00;93768.97;5053630;28;20478;-79
2021/12/10 11:36:18;;;;;;;64.00;42.77;;;;;;;8.05;100.00;93767.34;5054044;28;20492;-80
2021/12/10 11:38:50;;;;;;;80.77;45.47;;;;;;;8.00;100.00;93755.66;5053453;28;20501;-79
2021/12/10 11:41:22;;;;;;;91.03;55.37;;;;;;;8.04;100.00;93763.06;5053945;28;20459;-80
2021/12/10 11:44:06;;;;;;;120.53;80.60;;;;;;;8.02;100.00;93749.34;5067136;28;20457;-80
2021/12/10 11:47:02;;;;;;;93.53;62.33;;;;;;;7.89;100.00;93734.97;5053641;28;20544;-79
2021/12/10 11:49:33;;;;;;;84.97;54.40;;;;;;;7.88;100.00;93720.25;5053633;28;20462;-81
2021/12/10 11:52:03;;;;;;;78.17;48.60;;;;;;;7.92;100.00;93725.03;5054026;28;20432;-80
2021/12/10 11:54:36;;;;;;;75.23;46.13;;;;;;;7.90;100.00;93723.53;5053724;28;20439;-82
2021/12/10 11:57:11;;;;;;;60.97;44.13;;;;;;;7.93;100.00;93734.53;5053570;28;20447;-82
2021/12/10 12:06:31;;;;;;;47.97;34.90;;;;;;;8.01;100.00;93721.56;5053299;28;20756;-82
2021/12/10 12:08:58;;;;;;;50.40;36.50;;;;;;;7.98;100.00;93713.19;5053450;28;20441;-82
2021/12/10 12:11:25;;;;;;;24.50;18.00;;;;;;;7.90;100.00;93719.16;5018414;28;20454;-80
2021/12/10 12:13:57;;;;;;;60.80;36.47;;;;;;;7.94;100.00;93720.50;5052962;28;21313;-81
2021/12/10 12:16:27;;;;;;;56.23;37.70;;;;;;;7.96;100.00;93713.34;5053244;28;20427;-81
2021/12/10 12:18:58;;;;;;;26.30;18.83;;;;;;;8.07;100.00;93720.16;5053385;28;20455;-81
2021/12/10 12:27:15;;;;;;;11.17;8.63;;;;;;;8.34;98.71;93729.84;4983891;28;20436;-80
2021/12/10 12:33:10;;;;;;;36.20;21.97;;;;;;;8.62;99.90;93712.34;5011170;28;20479;-81